Time;durP1;ratioP1;P1;durP2;ratioP2;P2;SDS_P1;SDS_P2;PMS_P1;PMS_P2;Temp;Humidity;BMP_temperature;BMP_pressure;BME280_temperature;BME280_humidity;BME280_pressure;Samples;Min_cycle;Max_cycle;Signal;HPM_P1;HPM_P2
2022/04/26 03:36:35;;;;;;;0.98;0.98;;;;;;;7.53;100.00;90576.94;5032369;28;20036;-62
2022/04/26 03:39:00;;;;;;;1.10;1.02;;;;;;;7.49;100.00;90587.34;5032091;28;20053;-63
2022/04/26 03:41:25;;;;;;;0.90;0.90;;;;;;;7.47;100.00;90586.84;5048308;28;20474;-62
2022/04/26 03:43:51;;;;;;;0.90;0.90;;;;;;;7.45;100.00;90596.97;5051917;28;20092;-62
2022/04/26 03:46:16;;;;;;;1.00;1.00;;;;;;;7.51;100.00;90596.53;5051866;28;20029;-62
2022/04/26 03:48:42;;;;;;;4.80;1.40;;;;;;;7.58;100.00;90600.66;5051818;28;20021;-63
2022/04/26 03:51:07;;;;;;;0.88;0.88;;;;;;;7.60;100.00;90595.84;5033156;28;20033;-63
2022/04/26 03:53:33;;;;;;;0.80;0.80;;;;;;;7.58;100.00;90595.38;5051603;28;20031;-62
2022/04/26 03:55:58;;;;;;;5.80;1.05;;;;;;;7.63;100.00;90605.84;5051790;28;20033;-63
2022/04/26 03:58:26;;;;;;;2.05;1.85;;;;;;;7.64;100.00;90599.47;5033844;28;20064;-63
2022/04/26 04:00:52;;;;;;;0.93;0.93;;;;;;;7.62;100.00;90596.34;5051896;28;20086;-62
2022/04/26 04:03:17;;;;;;;1.00;1.00;;;;;;;7.68;100.00;90611.81;5051543;28;20107;-62
2022/04/26 04:05:43;;;;;;;1.00;1.00;;;;;;;7.78;100.00;90616.09;5051191;28;20035;-62
2022/04/26 04:08:08;;;;;;;2.72;1.75;;;;;;;7.90;100.00;90618.22;5051230;28;20029;-64
2022/04/26 04:10:34;;;;;;;0.80;0.80;;;;;;;7.96;100.00;90607.22;5051261;28;20053;-62
2022/04/26 04:12:59;;;;;;;0.80;0.80;;;;;;;8.00;100.00;90608.16;5051380;28;20406;-61
2022/04/26 04:15:25;;;;;;;1.00;1.00;;;;;;;8.05;100.00;90610.72;5051065;28;20479;-62
2022/04/26 04:17:50;;;;;;;0.90;0.90;;;;;;;8.13;100.00;90608.41;5051423;28;20070;-61
2022/04/26 04:20:16;;;;;;;1.00;1.00;;;;;;;8.18;100.00;90609.06;5051302;28;20082;-62
2022/04/26 04:22:41;;;;;;;1.35;1.30;;;;;;;8.32;100.00;90606.38;5051271;28;20025;-62
2022/04/26 04:25:07;;;;;;;1.00;1.00;;;;;;;8.42;100.00;90608.03;5051016;28;20036;-63
2022/04/26 04:27:33;;;;;;;0.90;0.90;;;;;;;8.53;100.00;90614.66;5050965;28;20039;-62
2022/04/26 04:30:02;;;;;;;0.80;0.80;;;;;;;8.59;100.00;90614.19;5051132;28;20031;-62
2022/04/26 04:32:29;;;;;;;0.80;0.80;;;;;;;8.60;100.00;90621.06;5051318;28;20025;-62
2022/04/26 04:34:54;;;;;;;1.10;1.10;;;;;;;8.67;98.91;90618.75;5051100;28;20040;-62
2022/04/26 04:37:20;;;;;;;0.95;0.93;;;;;;;8.78;97.73;90631.75;5050838;28;20060;-61
2022/04/26 04:39:45;;;;;;;0.80;0.80;;;;;;;8.86;96.53;90617.78;5050904;28;20091;-62
2022/04/26 04:42:13;;;;;;;1.35;0.98;;;;;;;9.02;94.32;90621.59;5051181;28;20036;-62
2022/04/26 04:44:38;;;;;;;0.80;0.80;;;;;;;8.97;94.37;90624.38;5051018;28;20025;-61
2022/04/26 04:47:04;;;;;;;1.20;1.10;;;;;;;9.08;94.41;90614.28;5050894;28;20124;-62
2022/04/26 04:49:29;;;;;;;1.10;1.00;;;;;;;9.32;93.12;90627.94;5050766;28;20095;-62
2022/04/26 04:51:55;;;;;;;0.80;0.80;;;;;;;9.70;91.78;90624.75;5056220;28;20025;-62
2022/04/26 04:54:20;;;;;;;1.00;1.00;;;;;;;11.93;81.28;90616.63;5060345;28;20027;-63
2022/04/26 04:56:46;;;;;;;0.80;0.80;;;;;;;15.63;61.59;90614.78;5053679;28;20021;-62
2022/04/26 04:59:11;;;;;;;0.93;0.93;;;;;;;18.40;52.06;90629.38;5050954;28;20040;-63
2022/04/26 05:01:36;;;;;;;0.90;0.90;;;;;;;20.23;46.67;90628.38;5051898;28;20029;-62
2022/04/26 05:04:02;;;;;;;1.10;1.10;;;;;;;22.34;42.33;90626.16;5054942;28;20025;-63
2022/04/26 05:06:27;;;;;;;0.88;0.88;;;;;;;23.78;39.05;90638.22;5054917;28;20044;-62
2022/04/26 05:08:53;;;;;;;1.85;1.50;;;;;;;24.95;36.88;90645.53;5054575;28;20037;-62
2022/04/26 05:11:18;;;;;;;1.20;1.10;;;;;;;24.44;36.15;90647.13;5054787;28;20554;-63
2022/04/26 05:13:44;;;;;;;0.90;0.90;;;;;;;23.40;37.24;90642.63;5054469;28;20029;-63
2022/04/26 05:16:10;;;;;;;1.65;1.30;;;;;;;23.55;38.12;90649.56;5036794;28;20564;-61
2022/04/26 05:18:35;;;;;;;1.85;1.10;;;;;;;23.75;37.88;90641.72;5054681;28;20103;-62
2022/04/26 05:21:01;;;;;;;1.40;1.30;;;;;;;23.70;38.69;90650.28;5054377;28;20025;-61
2022/04/26 05:26:11;;;;;;;4.82;1.40;;;;;;;24.26;38.60;90648.41;5054571;28;20109;-62
2022/04/26 05:28:36;;;;;;;1.83;1.20;;;;;;;25.84;36.64;90650.03;5054378;28;20108;-62
2022/04/26 05:31:02;;;;;;;1.17;1.10;;;;;;;26.40;34.99;90658.63;5054364;28;20032;-63
2022/04/26 05:33:27;;;;;;;1.13;1.05;;;;;;;26.88;34.53;90662.97;5054189;28;20755;-62
2022/04/26 05:35:53;;;;;;;1.77;1.67;;;;;;;28.04;34.57;90655.75;5054422;28;20120;-63
2022/04/26 05:38:19;;;;;;;2.67;1.35;;;;;;;28.75;32.73;90654.22;5054378;28;20033;-64
2022/04/26 05:40:44;;;;;;;28.10;16.65;;;;;;;29.16;32.81;90659.06;5054039;28;20068;-62
2022/04/26 05:43:10;;;;;;;26.08;15.27;;;;;;;29.66;32.45;90657.03;5053935;28;20078;-64
2022/04/26 05:45:36;;;;;;;2.35;1.58;;;;;;;30.74;30.18;90663.75;5054392;28;20486;-63
2022/04/26 05:48:02;;;;;;;1.25;1.15;;;;;;;31.56;29.02;90662.69;5054214;28;20035;-62
2022/04/26 05:50:27;;;;;;;1.00;0.88;;;;;;;32.20;28.57;90673.41;5054179;28;20048;-63
2022/04/26 05:52:53;;;;;;;1.00;0.90;;;;;;;31.19;29.36;90663.53;5053946;28;20477;-64
2022/04/26 05:55:18;;;;;;;0.88;0.88;;;;;;;31.39;28.17;90668.75;5053850;28;20608;-63
2022/04/26 05:57:44;;;;;;;1.33;1.02;;;;;;;31.76;27.73;90665.16;5054195;28;20033;-63
2022/04/26 06:00:12;;;;;;;1.77;1.63;;;;;;;32.75;27.62;90665.47;5053815;28;20480;-63
2022/04/26 06:02:38;;;;;;;1.50;1.40;;;;;;;31.26;29.40;90668.81;5053835;28;20091;-63
2022/04/26 06:05:04;;;;;;;1.48;1.35;;;;;;;31.64;28.24;90663.19;5073837;28;20033;-63
2022/04/26 06:07:30;;;;;;;0.68;0.68;;;;;;;30.58;29.02;90665.38;5073665;28;20047;-63
2022/04/26 06:09:56;;;;;;;1.10;1.00;;;;;;;29.19;31.94;90665.66;5073536;28;20101;-62
2022/04/26 06:12:26;;;;;;;2.88;1.25;;;;;;;29.80;30.09;90665.63;5073788;28;20033;-62
2022/04/26 06:14:55;;;;;;;0.90;0.90;;;;;;;29.78;30.68;90659.81;5073209;28;20032;-63
2022/04/26 06:17:21;;;;;;;1.95;1.05;;;;;;;31.74;28.96;90656.59;5055385;28;20430;-64
2022/04/26 06:19:47;;;;;;;0.70;0.70;;;;;;;29.54;30.72;90663.25;5073407;28;20473;-64
2022/04/26 06:22:13;;;;;;;0.70;0.70;;;;;;;29.63;30.85;90661.41;5073481;28;20024;-64
2022/04/26 06:24:38;;;;;;;1.58;1.15;;;;;;;28.38;32.15;90655.44;5073317;28;20040;-64
2022/04/26 06:27:04;;;;;;;0.90;0.80;;;;;;;29.34;31.58;90660.59;5073351;28;20413;-63
2022/04/26 06:29:29;;;;;;;1.00;0.90;;;;;;;29.47;31.71;90653.22;5073189;28;20037;-63
2022/04/26 06:31:55;;;;;;;4.07;1.85;;;;;;;30.35;30.78;90654.72;5073225;28;20028;-64
2022/04/26 06:34:20;;;;;;;1.33;1.23;;;;;;;30.92;30.74;90652.97;5073077;28;20025;-63
2022/04/26 06:36:46;;;;;;;1.27;1.17;;;;;;;28.92;32.31;90655.00;5073242;28;20024;-63
2022/04/26 06:39:12;;;;;;;3.42;1.92;;;;;;;30.64;30.64;90654.66;5073381;28;20036;-62
2022/04/26 06:41:37;;;;;;;0.80;0.80;;;;;;;28.19;33.76;90642.53;5073106;28;20025;-75
2022/04/26 06:44:04;;;;;;;1.35;1.17;;;;;;;28.30;34.83;90652.09;5073052;28;20371;-69
2022/04/26 06:46:29;;;;;;;5.45;3.13;;;;;;;27.62;33.93;90647.22;5073147;28;20107;-68
2022/04/26 06:48:58;;;;;;;2.55;1.10;;;;;;;27.12;35.17;90653.59;5055051;28;20116;-68
2022/04/26 06:51:24;;;;;;;1.00;1.00;;;;;;;26.27;35.56;90644.75;5072850;28;20028;-68
2022/04/26 06:53:49;;;;;;;1.52;1.40;;;;;;;29.84;31.90;90640.13;5073004;28;20044;-69
2022/04/26 06:56:15;;;;;;;1.23;1.13;;;;;;;28.94;32.96;90633.44;5072827;28;20028;-69
2022/04/26 06:58:40;;;;;;;1.05;1.05;;;;;;;28.09;34.19;90644.34;5072882;28;20032;-69
2022/04/26 07:01:06;;;;;;;5.57;1.42;;;;;;;29.79;32.13;90630.44;5043415;28;20044;-68
2022/04/26 07:03:31;;;;;;;1.27;1.27;;;;;;;31.25;30.65;90645.28;5042696;28;20060;-68
2022/04/26 07:05:57;;;;;;;1.27;1.00;;;;;;;30.90;30.77;90638.91;5032627;28;20496;-68
2022/04/26 07:08:22;;;;;;;0.93;0.90;;;;;;;30.89;30.85;90638.16;5032534;28;20431;-68
2022/04/26 07:10:48;;;;;;;1.00;1.00;;;;;;;28.19;33.27;90646.06;5032267;28;20507;-68
2022/04/26 07:13:18;;;;;;;1.02;0.90;;;;;;;27.81;34.20;90642.19;5032172;28;20029;-67
2022/04/26 07:15:44;;;;;;;1.60;1.25;;;;;;;30.48;32.45;90639.03;5031970;28;20030;-68
2022/04/26 07:18:12;;;;;;;1.20;1.10;;;;;;;28.57;33.45;90631.97;5032299;28;20034;-70
2022/04/26 07:20:41;;;;;;;3.97;1.58;;;;;;;30.88;31.68;90644.09;5031900;28;20040;-68
2022/04/26 07:23:07;;;;;;;1.20;1.10;;;;;;;31.58;32.24;90638.25;5031721;28;20109;-67
2022/04/26 07:25:33;;;;;;;3.65;1.45;;;;;;;31.17;31.10;90641.97;5030975;28;20042;-68
2022/04/26 07:27:59;;;;;;;19.65;13.05;;;;;;;31.49;32.41;90645.63;5031955;28;20109;-67
2022/04/26 07:30:34;;;;;;;9.77;4.07;;;;;;;31.36;31.78;90642.16;5031366;28;20033;-68
2022/04/26 07:35:44;;;;;;;2.40;1.73;;;;;;;31.18;31.13;90643.53;5031765;28;20517;-68
2022/04/26 07:38:10;;;;;;;1.38;1.27;;;;;;;32.75;31.03;90638.69;5031667;28;20021;-69
2022/04/26 07:40:36;;;;;;;1.67;1.30;;;;;;;31.17;32.25;90644.69;5031669;28;20029;-71
2022/04/26 07:43:01;;;;;;;1.05;0.95;;;;;;;31.03;32.25;90634.19;5031479;28;20044;-69
2022/04/26 07:45:27;;;;;;;1.10;1.05;;;;;;;27.83;36.10;90637.84;5031078;28;20510;-69
2022/04/26 07:47:52;;;;;;;8.70;1.85;;;;;;;29.07;35.11;90633.50;5031583;28;20025;-69
2022/04/26 07:50:19;;;;;;;0.88;0.88;;;;;;;27.89;36.56;90629.91;5031482;28;20029;-68
2022/04/26 07:52:45;;;;;;;1.67;1.05;;;;;;;29.17;35.23;90625.00;5031441;28;20053;-69
2022/04/26 07:55:10;;;;;;;9.10;6.38;;;;;;;30.69;32.83;90635.66;5031388;28;20030;-68
2022/04/26 07:57:38;;;;;;;3.25;2.22;;;;;;;32.31;32.23;90621.50;5033180;28;20052;-70
2022/04/26 08:00:05;;;;;;;1.98;1.60;;;;;;;32.11;32.35;90634.81;5032076;28;20069;-67
2022/04/26 08:02:31;;;;;;;3.33;1.20;;;;;;;31.54;31.95;90639.56;5037572;28;20503;-69
2022/04/26 08:05:01;;;;;;;1.85;1.70;;;;;;;31.83;32.71;90642.88;5031856;28;20084;-68
2022/04/26 08:07:28;;;;;;;1.52;1.45;;;;;;;31.67;32.47;90637.53;5031124;28;20029;-69
2022/04/26 08:09:54;;;;;;;0.77;0.77;;;;;;;30.78;32.73;90628.72;5031019;28;20144;-68
2022/04/26 08:12:20;;;;;;;1.30;1.20;;;;;;;32.20;32.06;90631.38;5031128;28;20046;-69
2022/04/26 08:14:45;;;;;;;1.38;1.27;;;;;;;32.70;31.62;90631.03;5030411;28;20029;-69
2022/04/26 08:17:11;;;;;;;0.88;0.88;;;;;;;35.16;29.08;90625.91;5030946;28;20047;-70
2022/04/26 08:19:37;;;;;;;0.90;0.90;;;;;;;30.66;32.41;90611.06;5030808;28;20026;-69
2022/04/26 08:22:03;;;;;;;0.98;0.98;;;;;;;27.65;36.90;90612.84;5030965;28;20028;-69
2022/04/26 08:27:30;;;;;;;0.98;0.90;;;;;;;28.70;35.30;90627.31;5031025;28;20083;-69
2022/04/26 08:29:58;;;;;;;14.60;7.47;;;;;;;31.75;32.32;90614.09;5030576;28;20380;-69
2022/04/26 08:32:24;;;;;;;1.95;1.67;;;;;;;30.98;33.11;90626.50;5030766;28;20044;-69
2022/04/26 08:34:51;;;;;;;1.38;1.27;;;;;;;29.61;34.77;90621.94;5030610;28;20472;-69
2022/04/26 08:37:16;;;;;;;3.60;1.95;;;;;;;29.40;35.05;90624.03;5030745;28;20087;-69
2022/04/26 08:39:42;;;;;;;1.20;0.95;;;;;;;32.15;31.71;90621.69;5030597;28;20392;-70
2022/04/26 08:42:07;;;;;;;1.55;1.25;;;;;;;33.54;31.23;90619.00;5030913;28;20108;-68
2022/04/26 08:44:34;;;;;;;1.35;1.25;;;;;;;32.93;31.08;90621.47;5030179;28;20101;-70
2022/04/26 08:52:45;;;;;;;6.55;4.55;;;;;;;32.25;32.27;90623.28;5030645;28;20096;-72
2022/04/26 08:55:10;;;;;;;1.50;1.40;;;;;;;29.94;33.94;90604.13;5030590;28;20032;-74
2022/04/26 08:57:36;;;;;;;1.67;1.58;;;;;;;32.52;31.34;90619.16;5030361;28;20415;-70
2022/04/26 09:00:05;;;;;;;1.30;1.20;;;;;;;33.16;30.63;90611.13;5030763;28;20022;-70
2022/04/26 09:02:30;;;;;;;0.82;0.82;;;;;;;32.00;32.08;90618.69;5030785;28;20029;-71
2022/04/26 09:05:01;;;;;;;2.22;1.92;;;;;;;33.30;30.82;90605.03;5030847;28;20484;-76
2022/04/26 09:07:34;;;;;;;4.10;0.90;;;;;;;32.43;31.45;90606.88;5012947;28;20422;-73
2022/04/26 09:10:11;;;;;;;0.90;0.90;;;;;;;31.21;33.28;90620.63;5012901;28;20099;-72
2022/04/26 09:13:09;;;;;;;2.47;0.85;;;;;;;34.38;29.46;90615.75;5029945;28;20491;-70
2022/04/26 09:15:47;;;;;;;1.52;1.23;;;;;;;34.34;30.10;90607.59;5036286;28;20457;-74
2022/04/26 09:18:20;;;;;;;1.70;1.40;;;;;;;34.11;30.44;90614.56;5049720;28;20071;-72
2022/04/26 09:20:46;;;;;;;;;;;;;;;35.94;28.29;90619.28;5050835;28;20021;-72
2022/04/26 09:23:20;;;;;;;1.38;1.27;;;;;;;33.61;30.80;90605.69;5050330;28;19913;-71
2022/04/26 09:25:47;;;;;;;0.80;0.80;;;;;;;27.55;35.98;90603.63;5050712;28;20033;-71
2022/04/26 09:28:29;;;;;;;1.65;1.45;;;;;;;26.67;38.18;90605.97;5050027;28;20021;-70
2022/04/26 09:30:56;;;;;;;1.38;1.27;;;;;;;25.83;39.52;90598.66;5050616;28;20059;-70
2022/04/26 09:33:38;;;;;;;3.05;1.85;;;;;;;23.87;43.13;90600.53;5050402;28;20120;-70
2022/04/26 09:36:11;;;;;;;9.50;5.43;;;;;;;23.76;43.43;90594.38;5050472;28;20082;-71
2022/04/26 09:38:38;;;;;;;1.55;1.35;;;;;;;23.45;45.04;90577.06;5050395;28;20487;-71
2022/04/26 09:41:09;;;;;;;1.38;1.20;;;;;;;25.16;41.42;90586.63;5050457;28;20033;-70
2022/04/26 09:43:36;;;;;;;1.88;0.82;;;;;;;28.31;37.54;90587.97;5049804;28;20091;-71
2022/04/26 09:46:04;;;;;;;1.02;0.90;;;;;;;31.72;33.04;90589.44;5050449;28;20033;-72
2022/04/26 09:48:38;;;;;;;3.22;1.45;;;;;;;29.13;34.59;90587.94;5050707;28;20078;-73
2022/04/26 09:51:05;;;;;;;3.40;2.03;;;;;;;25.72;40.00;90593.38;5054161;28;20033;-72
2022/04/26 09:53:32;;;;;;;0.70;0.70;;;;;;;25.21;40.56;90581.50;5053695;28;20494;-73
2022/04/26 09:56:00;;;;;;;0.93;0.85;;;;;;;23.93;43.01;90582.63;5053980;28;20028;-72
2022/04/26 09:58:27;;;;;;;2.42;2.22;;;;;;;22.91;44.55;90588.13;5053069;28;20518;-73
2022/04/26 10:00:54;;;;;;;2.17;1.17;;;;;;;21.85;47.32;90590.88;5053502;28;20029;-72
2022/04/26 10:03:25;;;;;;;4.70;1.92;;;;;;;20.63;50.21;90582.34;5053782;28;20025;-72
2022/04/26 10:06:02;;;;;;;5.68;3.88;;;;;;;20.77;51.17;90580.88;5053402;28;20036;-70
2022/04/26 10:08:30;;;;;;;7.38;4.03;;;;;;;20.80;51.05;90582.81;5053676;28;20033;-72
2022/04/26 10:10:57;;;;;;;3.33;1.88;;;;;;;20.39;51.92;90585.66;5053122;28;20048;-72
2022/04/26 10:13:31;;;;;;;1.52;1.42;;;;;;;20.53;51.93;90582.28;5053005;28;20547;-73
2022/04/26 10:16:08;;;;;;;1.23;1.23;;;;;;;20.51;51.64;90593.47;5053399;28;20025;-71
2022/04/26 10:18:45;;;;;;;1.52;1.42;;;;;;;20.45;51.59;90584.16;5053517;28;20469;-73
2022/04/26 10:21:31;;;;;;;2.60;2.40;;;;;;;20.69;51.03;90596.28;5053416;28;20025;-72
2022/04/26 10:24:01;;;;;;;2.30;1.65;;;;;;;20.37;51.70;90595.28;5053071;28;20033;-73
2022/04/26 10:26:27;;;;;;;1.00;1.00;;;;;;;20.03;54.92;90598.88;5053555;28;20056;-72
2022/04/26 10:29:02;;;;;;;1.77;1.20;;;;;;;19.61;55.45;90588.50;5053321;28;20037;-72
2022/04/26 10:31:37;;;;;;;1.33;1.23;;;;;;;19.69;58.06;90610.94;5053506;28;20025;-73
2022/04/26 10:34:46;;;;;;;1.20;1.10;;;;;;;19.42;61.22;90611.03;5053024;28;20029;-72
2022/04/26 10:37:12;;;;;;;0.90;0.90;;;;;;;19.13;63.41;90620.75;5053009;28;20804;-72
2022/04/26 10:39:58;;;;;;;1.27;1.17;;;;;;;18.52;52.60;90605.69;5052911;28;20505;-72
2022/04/26 10:42:26;;;;;;;1.20;1.20;;;;;;;18.31;55.44;90591.16;5052421;28;20743;-71
2022/04/26 10:45:05;;;;;;;1.63;1.52;;;;;;;18.23;58.92;90574.13;5052784;28;20028;-69
2022/04/26 10:47:30;;;;;;;1.17;1.17;;;;;;;18.79;58.20;90582.22;5052733;28;20049;-68
2022/04/26 10:49:58;;;;;;;0.93;0.93;;;;;;;21.73;43.75;90584.66;5052835;28;20029;-68
2022/04/26 10:52:24;;;;;;;1.42;1.38;;;;;;;25.89;44.23;90586.91;5052817;28;20399;-68
2022/04/26 10:54:53;;;;;;;0.70;0.70;;;;;;;27.12;33.91;90588.03;5052917;28;20047;-69
2022/04/26 10:57:19;;;;;;;0.70;0.70;;;;;;;27.63;34.30;90583.19;5052398;28;20025;-69
2022/04/26 10:59:47;;;;;;;0.73;0.73;;;;;;;30.08;31.22;90581.03;5052598;28;20116;-68
2022/04/26 11:02:14;;;;;;;0.70;0.70;;;;;;;31.77;29.85;90578.66;5052810;28;20419;-69
2022/04/26 11:04:40;;;;;;;1.25;1.15;;;;;;;31.00;32.32;90582.88;5052925;28;20461;-69
2022/04/26 11:07:16;;;;;;;2.20;1.75;;;;;;;30.14;35.27;90578.50;5052603;28;20557;-72
2022/04/26 11:09:49;;;;;;;1.13;0.90;;;;;;;32.02;32.87;90574.22;5052402;28;20083;-72
2022/04/26 11:12:17;;;;;;;2.45;0.80;;;;;;;31.06;35.38;90583.81;5052251;28;20033;-68
2022/04/26 11:14:44;;;;;;;0.88;0.88;;;;;;;31.30;37.73;90584.22;5052253;28;20025;-68
2022/04/26 11:17:09;;;;;;;0.90;0.90;;;;;;;30.64;38.57;90583.28;5052289;28;20032;-69
2022/04/26 11:19:46;;;;;;;1.20;1.10;;;;;;;30.67;38.12;90588.63;5052500;28;20440;-68
2022/04/26 11:22:15;;;;;;;1.83;1.50;;;;;;;28.09;41.39;90580.63;5052272;28;20487;-68
2022/04/26 11:30:35;;;;;;;1.58;1.13;;;;;;;25.59;45.90;90584.16;5060052;28;20488;-70
2022/04/26 11:33:10;;;;;;;0.88;0.88;;;;;;;24.51;47.55;90581.03;5060198;28;20067;-70
2022/04/26 11:35:36;;;;;;;1.50;1.40;;;;;;;26.14;43.82;90586.53;5052369;28;20107;-65
2022/04/26 11:38:03;;;;;;;0.90;0.90;;;;;;;26.37;44.49;90577.66;5051623;28;20048;-65
2022/04/26 11:40:34;;;;;;;2.40;2.00;;;;;;;24.19;46.66;90590.19;5051683;28;20029;-65
2022/04/26 11:43:07;;;;;;;1.30;1.20;;;;;;;22.80;49.73;90581.16;5051292;28;20108;-68
2022/04/26 11:45:34;;;;;;;1.25;1.15;;;;;;;21.63;51.16;90560.31;5051822;28;20453;-67
2022/04/26 11:47:59;;;;;;;1.05;0.90;;;;;;;21.65;53.45;90569.59;5051914;28;20584;-67
2022/04/26 11:50:28;;;;;;;2.25;1.15;;;;;;;21.57;52.78;90570.72;5051425;28;20033;-67
2022/04/26 11:53:00;;;;;;;1.63;1.27;;;;;;;21.95;51.71;90568.47;5051468;28;20064;-68
2022/04/26 11:55:28;;;;;;;1.20;1.10;;;;;;;23.30;47.69;90566.25;5051745;28;20032;-68
2022/04/26 11:58:08;;;;;;;1.48;1.00;;;;;;;23.53;47.68;90546.78;5051062;28;20044;-68
2022/04/26 12:00:34;;;;;;;1.13;1.05;;;;;;;23.62;47.74;90546.34;5051594;28;20107;-68
2022/04/26 12:03:02;;;;;;;0.90;0.90;;;;;;;22.39;50.28;90552.56;5051383;28;20032;-68
2022/04/26 12:05:28;;;;;;;0.98;0.93;;;;;;;22.36;50.95;90564.19;5051507;28;20171;-68
2022/04/26 12:07:55;;;;;;;0.73;0.73;;;;;;;21.26;53.10;90547.84;5051544;28;20021;-67
2022/04/26 12:10:33;;;;;;;5.80;2.40;;;;;;;21.42;54.62;90555.59;5051281;28;20091;-68
2022/04/26 12:13:05;;;;;;;1.35;1.25;;;;;;;21.94;53.42;90547.94;5050611;28;20390;-68
2022/04/26 12:15:33;;;;;;;2.55;2.03;;;;;;;22.82;49.09;90555.22;5051324;28;20025;-68
2022/04/26 12:18:09;;;;;;;1.30;1.20;;;;;;;23.59;48.46;90550.63;5050524;28;20040;-68
2022/04/26 12:20:56;;;;;;;1.58;0.98;;;;;;;24.04;47.31;90556.16;5051439;28;20033;-67
2022/04/26 12:23:22;;;;;;;1.27;1.17;;;;;;;24.67;47.12;90542.41;5051171;28;20570;-68
2022/04/26 12:26:01;;;;;;;0.93;0.93;;;;;;;25.26;45.90;90529.34;5050746;28;20033;-66
2022/04/26 12:28:26;;;;;;;1.63;1.10;;;;;;;25.75;42.14;90543.50;5051108;28;20086;-67
2022/04/26 12:30:52;;;;;;;2.55;1.73;;;;;;;23.99;42.97;90548.44;5051140;28;20458;-67
2022/04/26 12:33:30;;;;;;;1.13;1.02;;;;;;;22.20;48.75;90531.31;5050872;28;20096;-67
2022/04/26 12:36:06;;;;;;;1.30;1.10;;;;;;;21.62;49.20;90543.28;5051021;28;20025;-67
2022/04/26 12:38:50;;;;;;;1.10;1.10;;;;;;;20.59;50.58;90546.41;5050951;28;20025;-66
2022/04/26 12:41:15;;;;;;;1.50;1.30;;;;;;;20.63;51.33;90541.78;5050478;28;20037;-67
2022/04/26 12:43:43;;;;;;;1.17;1.17;;;;;;;20.83;51.45;90536.88;5033075;28;20031;-66
2022/04/26 12:46:08;;;;;;;17.83;9.82;;;;;;;21.03;51.55;90534.63;5051147;28;20029;-67
2022/04/26 12:51:27;;;;;;;4.03;2.38;;;;;;;21.95;52.68;90546.78;5050949;28;20059;-67
2022/04/26 12:54:05;;;;;;;1.00;0.90;;;;;;;22.88;54.19;90542.81;5050665;28;20502;-67
2022/04/26 12:56:31;;;;;;;1.40;0.85;;;;;;;24.13;52.10;90532.00;5050306;28;20025;-67
2022/04/26 12:58:57;;;;;;;1.60;1.17;;;;;;;25.29;50.74;90538.63;5050817;28;20029;-67
2022/04/26 13:01:22;;;;;;;0.98;0.98;;;;;;;25.65;46.67;90536.22;5050871;28;20029;-67
2022/04/26 13:03:48;;;;;;;2.70;1.60;;;;;;;25.33;44.58;90529.22;5050764;28;20108;-67
2022/04/26 13:06:18;;;;;;;1.25;0.80;;;;;;;25.44;44.94;90528.34;5050670;28;20419;-67
2022/04/26 13:08:48;;;;;;;2.35;1.48;;;;;;;23.87;45.71;90538.81;5050518;28;20060;-67
2022/04/26 13:11:17;;;;;;;0.75;0.75;;;;;;;22.29;47.44;90533.63;5050264;28;20242;-66
2022/04/26 13:13:46;;;;;;;0.77;0.77;;;;;;;21.93;48.03;90541.72;5050618;28;20449;-66
2022/04/26 13:16:12;;;;;;;1.80;1.40;;;;;;;21.83;49.60;90540.59;5050324;28;20049;-66
2022/04/26 13:18:38;;;;;;;1.15;0.90;;;;;;;23.88;46.66;90534.91;5050683;28;20036;-67
2022/04/26 13:21:05;;;;;;;0.88;0.80;;;;;;;25.56;42.94;90527.75;5050587;28;20021;-67
2022/04/26 13:23:34;;;;;;;0.80;0.80;;;;;;;26.42;40.75;90536.25;5051051;28;20064;-68
2022/04/26 13:26:00;;;;;;;1.05;1.05;;;;;;;25.44;42.53;90533.78;5053808;28;20082;-68
2022/04/26 13:28:25;;;;;;;0.85;0.85;;;;;;;27.05;40.75;90530.84;5045017;28;20429;-68
2022/04/26 13:30:51;;;;;;;1.05;0.98;;;;;;;27.55;39.05;90526.34;5054591;28;20040;-68
2022/04/26 13:33:16;;;;;;;1.90;1.15;;;;;;;26.80;37.75;90525.06;5053791;28;20537;-68
2022/04/26 13:35:42;;;;;;;1.20;1.10;;;;;;;27.08;38.61;90519.09;5070182;28;20031;-68
2022/04/26 13:38:12;;;;;;;1.15;1.05;;;;;;;26.81;38.11;90529.31;5047301;28;20071;-68
2022/04/26 13:40:39;;;;;;;1.17;1.00;;;;;;;24.86;40.81;90530.16;5058451;28;20044;-69
2022/04/26 13:43:06;;;;;;;0.95;0.93;;;;;;;25.64;41.59;90518.31;5050187;28;20033;-68
2022/04/26 13:45:33;;;;;;;1.08;0.98;;;;;;;26.20;39.95;90515.94;5055988;28;20494;-67
2022/04/26 13:48:01;;;;;;;0.80;0.80;;;;;;;26.22;39.68;90519.81;5053727;28;20035;-68
2022/04/26 13:50:27;;;;;;;1.38;1.27;;;;;;;24.89;42.37;90516.50;5054018;28;20033;-66
2022/04/26 13:52:52;;;;;;;1.42;0.95;;;;;;;24.95;42.28;90514.13;5054044;28;20483;-67
2022/04/26 13:55:18;;;;;;;1.95;1.00;;;;;;;24.49;42.47;90518.13;5053286;28;20426;-67
2022/04/26 13:57:44;;;;;;;1.55;1.02;;;;;;;23.98;43.67;90514.25;5053177;28;20037;-67
2022/04/26 14:00:11;;;;;;;1.00;1.00;;;;;;;24.93;42.75;90516.47;5053173;28;20044;-67
2022/04/26 14:02:38;;;;;;;0.95;0.95;;;;;;;25.29;41.61;90527.75;5052871;28;20053;-68
2022/04/26 14:05:04;;;;;;;0.70;0.70;;;;;;;24.64;42.63;90522.25;5053451;28;20509;-68
2022/04/26 14:07:30;;;;;;;1.05;1.00;;;;;;;23.59;44.49;90517.28;5069378;28;20426;-68
2022/04/26 14:09:55;;;;;;;1.35;1.25;;;;;;;24.58;43.37;90506.75;5065478;28;20494;-68
2022/04/26 14:12:21;;;;;;;1.23;0.90;;;;;;;24.82;42.93;90500.28;5058009;28;20083;-68
2022/04/26 14:22:59;;;;;;;1.35;1.13;;;;;;;22.99;46.78;90500.13;5035737;28;20095;-67
2022/04/26 14:25:24;;;;;;;1.02;0.80;;;;;;;22.94;46.47;90491.63;5053112;28;20041;-67
2022/04/26 14:27:50;;;;;;;0.95;0.88;;;;;;;23.11;46.86;90498.91;5052899;28;20021;-67
2022/04/26 14:30:16;;;;;;;5.57;2.35;;;;;;;23.48;45.88;90489.38;5052203;28;20031;-67
2022/04/26 14:32:44;;;;;;;0.98;0.88;;;;;;;24.64;44.07;90497.00;5052590;28;20021;-66
2022/04/26 14:35:10;;;;;;;1.52;1.10;;;;;;;25.61;42.90;90505.53;5050404;28;20033;-65
2022/04/26 14:37:36;;;;;;;0.90;0.90;;;;;;;26.37;41.53;90503.22;5052442;28;20031;-64
2022/04/26 14:40:03;;;;;;;1.08;1.00;;;;;;;24.56;42.84;90500.94;5052954;28;20111;-65
2022/04/26 14:42:31;;;;;;;2.35;1.20;;;;;;;23.36;44.84;90509.63;5064928;28;20025;-66
2022/04/26 14:44:57;;;;;;;0.70;0.70;;;;;;;22.14;48.12;90507.72;5073135;28;20036;-66
2022/04/26 14:47:28;;;;;;;0.80;0.80;;;;;;;20.71;51.67;90502.06;5054053;28;20028;-67
2022/04/26 14:49:57;;;;;;;1.10;1.00;;;;;;;20.46;53.61;90503.88;5053175;28;20021;-67
2022/04/26 14:52:24;;;;;;;0.90;0.90;;;;;;;20.08;54.40;90502.50;5052982;28;20523;-66
2022/04/26 14:54:50;;;;;;;5.80;2.20;;;;;;;19.63;57.03;90493.69;5056087;28;20032;-65
2022/04/26 14:57:21;;;;;;;2.50;1.60;;;;;;;19.44;57.98;90494.66;5058403;28;20483;-65
2022/04/26 14:59:47;;;;;;;0.93;0.93;;;;;;;19.17;57.36;90512.91;5058066;28;20120;-67
2022/04/26 15:02:17;;;;;;;9.45;6.40;;;;;;;19.40;58.05;90499.25;5035543;28;20028;-66
2022/04/26 15:04:47;;;;;;;4.88;1.90;;;;;;;19.40;57.90;90502.72;5053187;28;20039;-65
2022/04/26 15:07:13;;;;;;;1.63;1.52;;;;;;;19.39;58.57;90498.47;5052964;28;20028;-67
2022/04/26 15:09:47;;;;;;;2.03;1.33;;;;;;;19.38;58.13;90502.31;5052563;28;20053;-67
2022/04/26 15:17:48;;;;;;;1.00;1.00;;;;;;;18.88;60.50;90519.16;5052874;28;20039;-66
2022/04/26 15:20:15;;;;;;;1.05;1.02;;;;;;;18.89;60.70;90526.88;5052528;28;20056;-67
2022/04/26 15:22:41;;;;;;;0.88;0.88;;;;;;;18.84;60.73;90517.19;5052670;28;20501;-67
2022/04/26 15:25:09;;;;;;;1.60;1.13;;;;;;;18.68;61.69;90516.63;5052462;28;20037;-67
2022/04/26 15:27:37;;;;;;;1.00;1.00;;;;;;;18.47;61.45;90510.97;5052452;28;20029;-67
2022/04/26 15:30:05;;;;;;;0.70;0.70;;;;;;;18.34;62.57;90521.19;5052367;28;20167;-69
2022/04/26 15:32:30;;;;;;;0.80;0.80;;;;;;;18.23;62.53;90504.91;5052199;28;20029;-67
2022/04/26 15:34:55;;;;;;;1.02;0.98;;;;;;;18.13;63.10;90524.38;5052143;28;20017;-68
2022/04/26 15:37:24;;;;;;;1.10;0.80;;;;;;;18.18;63.90;90518.69;5052272;28;20668;-68
2022/04/26 15:39:50;;;;;;;1.00;1.00;;;;;;;18.01;64.28;90527.28;5052176;28;20029;-67
2022/04/26 15:42:18;;;;;;;1.10;1.10;;;;;;;17.86;65.67;90533.59;5052046;28;20032;-68
2022/04/26 15:44:44;;;;;;;1.00;1.00;;;;;;;17.76;66.75;90528.84;5051417;28;20039;-68
2022/04/26 15:47:09;;;;;;;0.70;0.70;;;;;;;17.72;67.24;90552.22;5048310;28;20481;-66
2022/04/26 15:49:34;;;;;;;0.95;0.95;;;;;;;17.50;69.32;90543.00;5051667;28;20036;-67